Time;durP1;ratioP1;P1;durP2;ratioP2;P2;SDS_P1;SDS_P2;PMS_P1;PMS_P2;Temp;Humidity;BMP_temperature;BMP_pressure;BME280_temperature;BME280_humidity;BME280_pressure;Samples;Min_cycle;Max_cycle;Signal;HPM_P1;HPM_P2
2023/11/09 00:00:56;;;;;;;;;;;4.30;99.90;;;;;;5072581;28;19920;-80
2023/11/09 00:03:27;;;;;;;;;;;4.20;99.90;;;;;;5087177;28;19909;-80
2023/11/09 00:05:56;;;;;;;;;;;4.30;99.90;;;;;;5088063;28;19930;-79
2023/11/09 00:08:23;;;;;;;;;;;4.70;99.90;;;;;;5056229;28;19916;-80
2023/11/09 00:10:49;;;;;;;;;;;5.10;99.90;;;;;;5073547;28;20399;-79
2023/11/09 00:13:18;;;;;;;;;;;4.70;99.90;;;;;;5082472;28;19932;-79
2023/11/09 00:15:45;;;;;;;;;;;4.30;99.90;;;;;;5064790;28;19908;-79
2023/11/09 00:18:11;;;;;;;;;;;4.70;99.90;;;;;;5081022;28;19909;-78
2023/11/09 00:20:37;;;;;;;;;;;4.70;99.90;;;;;;5089263;28;19913;-80
2023/11/09 00:23:04;;;;;;;;;;;5.10;99.90;;;;;;5074482;28;19907;-80
2023/11/09 00:25:34;;;;;;;;;;;4.60;99.90;;;;;;5091890;28;19919;-79
2023/11/09 00:28:01;;;;;;;;;;;4.60;99.90;;;;;;5071222;28;19904;-78
2023/11/09 00:30:32;;;;;;;;;;;4.50;99.90;;;;;;5086035;28;19911;-78
2023/11/09 00:33:22;;;;;;;;;;;4.90;99.90;;;;;;5089783;28;19919;-79
2023/11/09 00:35:50;;;;;;;;;;;4.60;99.90;;;;;;5068352;28;19916;-79
2023/11/09 00:38:37;;;;;;;;;;;4.50;99.90;;;;;;5090582;28;19937;-79
2023/11/09 00:41:23;;;;;;;;;;;4.40;99.90;;;;;;5078739;28;19970;-80
2023/11/09 00:43:53;;;;;;;;;;;4.50;99.90;;;;;;5097593;28;19924;-80
2023/11/09 00:46:20;;;;;;;;;;;4.40;99.90;;;;;;5080672;28;19913;-80
2023/11/09 00:48:49;;;;;;;;;;;4.50;99.90;;;;;;5080950;28;19895;-80
2023/11/09 00:51:19;;;;;;;;;;;4.40;99.90;;;;;;5098729;28;19900;-79
2023/11/09 00:53:48;;;;;;;;;;;4.40;99.90;;;;;;5096225;28;19974;-78
2023/11/09 00:56:16;;;;;;;;;;;4.40;99.90;;;;;;5067615;28;19908;-78
2023/11/09 00:58:42;;;;;;;;;;;4.50;99.90;;;;;;5083377;28;19904;-78
2023/11/09 01:01:07;;;;;;;;;;;4.40;99.90;;;;;;5067169;28;19905;-78
2023/11/09 01:03:34;;;;;;;;;;;4.50;99.90;;;;;;5097520;28;19927;-79
2023/11/09 01:06:04;;;;;;;;;;;4.40;99.90;;;;;;5063430;28;19943;-78
2023/11/09 01:08:29;;;;;;;;;;;4.40;99.90;;;;;;5097030;28;19904;-78
2023/11/09 01:10:56;;;;;;;;;;;4.40;99.90;;;;;;5072921;28;19927;-79
2023/11/09 01:13:22;;;;;;;;;;;4.30;99.90;;;;;;5093489;28;19911;-79
2023/11/09 01:15:55;;;;;;;;;;;4.30;99.90;;;;;;5075461;28;19905;-79
2023/11/09 01:18:22;;;;;;;;;;;4.30;99.90;;;;;;5073932;28;19986;-79
2023/11/09 01:20:47;;;;;;;;;;;4.30;99.90;;;;;;5066836;28;19908;-78
2023/11/09 01:23:23;;;;;;;;;;;4.30;99.90;;;;;;5073153;28;19976;-80
2023/11/09 01:25:49;;;;;;;;;;;4.40;99.90;;;;;;5084745;28;20347;-78
2023/11/09 01:28:15;;;;;;;;;;;4.40;99.90;;;;;;5081053;28;19963;-79
2023/11/09 01:30:46;;;;;;;;;;;4.40;99.90;;;;;;5056295;28;19912;-79
2023/11/09 01:33:12;;;;;;;;;;;4.30;99.90;;;;;;5072667;28;19904;-79
2023/11/09 01:35:42;;;;;;;;;;;4.20;99.90;;;;;;5092784;28;20372;-79
2023/11/09 01:38:07;;;;;;;;;;;4.30;99.90;;;;;;5057237;28;19912;-78
2023/11/09 01:40:34;;;;;;;;;;;4.30;99.90;;;;;;5077806;28;19967;-78
2023/11/09 01:42:59;;;;;;;;;;;4.90;99.90;;;;;;5068269;28;19915;-77
2023/11/09 01:45:25;;;;;;;;;;;4.40;99.90;;;;;;5068212;28;19979;-78
2023/11/09 01:47:53;;;;;;;;;;;4.20;99.90;;;;;;5066379;28;19908;-79
2023/11/09 01:50:18;;;;;;;;;;;4.20;99.90;;;;;;5046199;28;19908;-78
2023/11/09 01:52:58;;;;;;;;;;;4.20;99.90;;;;;;5064941;28;19915;-78
2023/11/09 01:55:26;;;;;;;;;;;4.10;99.90;;;;;;5064450;28;19908;-78
2023/11/09 01:57:53;;;;;;;;;;;4.10;99.90;;;;;;5064009;28;19904;-77
2023/11/09 02:00:19;;;;;;;;;;;4.20;99.90;;;;;;5083998;28;19909;-78
2023/11/09 02:02:52;;;;;;;;;;;4.10;99.90;;;;;;5083799;28;19932;-78
2023/11/09 02:05:18;;;;;;;;;;;4.10;99.90;;;;;;5084125;28;19923;-78
2023/11/09 02:07:44;;;;;;;;;;;4.10;99.90;;;;;;5067875;28;20384;-79
2023/11/09 02:10:13;;;;;;;;;;;4.10;99.90;;;;;;5068212;28;19905;-79
2023/11/09 02:12:42;;;;;;;;;;;4.00;99.90;;;;;;5067463;28;19976;-79
2023/11/09 02:15:09;;;;;;;;;;;4.00;99.90;;;;;;5084908;28;19965;-79
2023/11/09 02:17:35;;;;;;;;;;;4.00;99.90;;;;;;5052496;28;20277;-78
2023/11/09 02:20:01;;;;;;;;;;;3.90;99.90;;;;;;5065336;28;20001;-78
2023/11/09 02:22:28;;;;;;;;;;;5.00;99.90;;;;;;5067606;28;19904;-80
2023/11/09 02:24:55;;;;;;;;;;;4.00;99.90;;;;;;5071986;28;19913;-79
2023/11/09 02:27:23;;;;;;;;;;;4.50;99.90;;;;;;5086390;28;19905;-78
2023/11/09 02:29:48;;;;;;;;;;;4.00;99.90;;;;;;5084261;28;19905;-78
2023/11/09 02:32:14;;;;;;;;;;;4.00;99.90;;;;;;5064491;28;20392;-79
2023/11/09 02:34:40;;;;;;;;;;;4.00;99.90;;;;;;5069087;28;19931;-78
2023/11/09 02:37:09;;;;;;;;;;;4.60;99.90;;;;;;5085783;28;19909;-79
2023/11/09 02:39:35;;;;;;;;;;;3.60;99.90;;;;;;5066329;28;20320;-78
2023/11/09 02:42:02;;;;;;;;;;;3.80;99.90;;;;;;5084487;28;19916;-78
2023/11/09 02:44:30;;;;;;;;;;;3.60;99.90;;;;;;5068753;28;19917;-78
2023/11/09 02:46:55;;;;;;;;;;;4.40;99.90;;;;;;5086598;28;19919;-79
2023/11/09 02:49:22;;;;;;;;;;;4.00;99.90;;;;;;5072026;28;19904;-79
2023/11/09 02:51:49;;;;;;;;;;;4.20;99.90;;;;;;5088817;28;19911;-79
2023/11/09 02:54:18;;;;;;;;;;;3.90;99.90;;;;;;5069407;28;19923;-80
2023/11/09 02:56:44;;;;;;;;;;;4.50;99.90;;;;;;5074027;28;19915;-77
2023/11/09 02:59:11;;;;;;;;;;;4.00;99.90;;;;;;5067361;28;19920;-79
2023/11/09 03:01:39;;;;;;;;;;;3.90;99.90;;;;;;5073939;28;19931;-80
2023/11/09 03:04:07;;;;;;;;;;;3.80;99.90;;;;;;5063609;28;19918;-79
2023/11/09 03:06:33;;;;;;;;;;;4.00;99.90;;;;;;5067837;28;19913;-78
2023/11/09 03:09:00;;;;;;;;;;;4.00;99.90;;;;;;5087961;28;19911;-79
2023/11/09 03:11:33;;;;;;;;;;;4.00;99.90;;;;;;5074868;28;19919;-80
2023/11/09 03:14:00;;;;;;;;;;;3.90;99.90;;;;;;5066836;28;20442;-78
2023/11/09 03:16:26;;;;;;;;;;;4.10;99.90;;;;;;5064288;28;19908;-78
2023/11/09 03:18:51;;;;;;;;;;;4.20;99.90;;;;;;5054801;28;19943;-79
2023/11/09 03:21:17;;;;;;;;;;;3.90;99.90;;;;;;5047616;28;19919;-80
2023/11/09 03:23:49;;;;;;;;;;;4.00;99.90;;;;;;5063366;28;19905;-79
2023/11/09 03:26:15;;;;;;;;;;;4.10;99.90;;;;;;5075942;28;19916;-78
2023/11/09 03:28:42;;;;;;;;;;;3.90;99.90;;;;;;5064291;28;19921;-78
2023/11/09 03:31:17;;;;;;;;;;;4.50;99.90;;;;;;5069495;28;19950;-78
2023/11/09 03:33:46;;;;;;;;;;;3.80;99.90;;;;;;5068853;28;19905;-79
2023/11/09 03:36:30;;;;;;;;;;;3.90;99.90;;;;;;5067182;28;19954;-79
2023/11/09 03:38:56;;;;;;;;;;;3.80;99.90;;;;;;5057800;28;19908;-78
2023/11/09 03:41:23;;;;;;;;;;;3.70;99.90;;;;;;5059330;28;19967;-78
2023/11/09 03:43:49;;;;;;;;;;;3.70;99.90;;;;;;5060101;28;19916;-79
2023/11/09 03:46:14;;;;;;;;;;;3.70;99.90;;;;;;5060392;28;19999;-78
2023/11/09 03:48:40;;;;;;;;;;;4.10;99.90;;;;;;5080285;28;19904;-79
2023/11/09 03:51:07;;;;;;;;;;;3.80;99.90;;;;;;5052781;28;19892;-80
2023/11/09 03:53:38;;;;;;;;;;;3.60;99.90;;;;;;5088467;28;20012;-79
2023/11/09 03:56:07;;;;;;;;;;;3.60;99.90;;;;;;5071795;28;19951;-78
2023/11/09 03:58:33;;;;;;;;;;;3.60;99.90;;;;;;5085580;28;19912;-79
2023/11/09 04:00:59;;;;;;;;;;;4.00;99.90;;;;;;5064995;28;19908;-78
2023/11/09 04:03:25;;;;;;;;;;;3.80;99.90;;;;;;5063194;28;19909;-78
2023/11/09 04:05:51;;;;;;;;;;;3.60;99.90;;;;;;5067915;28;19934;-78
2023/11/09 04:08:28;;;;;;;;;;;3.70;99.90;;;;;;5070507;28;19911;-78
2023/11/09 04:10:58;;;;;;;;;;;3.70;99.90;;;;;;5069440;28;19904;-78
2023/11/09 04:13:24;;;;;;;;;;;3.80;99.90;;;;;;5067857;28;20337;-78
2023/11/09 04:16:03;;;;;;;;;;;3.80;99.90;;;;;;5055954;28;19908;-79
2023/11/09 04:18:33;;;;;;;;;;;3.70;99.90;;;;;;5089702;28;19905;-79
2023/11/09 04:20:59;;;;;;;;;;;3.70;99.90;;;;;;5070802;28;19995;-78
2023/11/09 04:23:29;;;;;;;;;;;3.70;99.90;;;;;;5089391;28;19915;-78
2023/11/09 04:25:54;;;;;;;;;;;3.80;99.90;;;;;;5067700;28;20410;-78
2023/11/09 04:28:20;;;;;;;;;;;3.80;99.90;;;;;;5070578;28;19908;-79
2023/11/09 04:30:49;;;;;;;;;;;3.60;99.90;;;;;;5066448;28;19915;-78
2023/11/09 04:33:17;;;;;;;;;;;3.80;99.90;;;;;;5086597;28;19938;-78
2023/11/09 04:35:46;;;;;;;;;;;3.60;99.90;;;;;;5068361;28;19915;-78
2023/11/09 04:38:15;;;;;;;;;;;3.50;99.90;;;;;;5069529;28;19908;-79
2023/11/09 04:40:44;;;;;;;;;;;3.60;99.90;;;;;;5068869;28;19904;-78
2023/11/09 04:43:15;;;;;;;;;;;3.60;99.90;;;;;;5084856;28;19970;-77
2023/11/09 04:45:42;;;;;;;;;;;3.50;99.90;;;;;;5084632;28;19936;-78
2023/11/09 04:48:19;;;;;;;;;;;3.50;99.90;;;;;;5084979;28;19949;-79
2023/11/09 04:50:55;;;;;;;;;;;3.50;99.90;;;;;;5066810;28;19912;-78
2023/11/09 04:53:30;;;;;;;;;;;3.50;99.90;;;;;;5066923;28;19905;-79
2023/11/09 04:56:07;;;;;;;;;;;3.40;99.90;;;;;;5093278;28;19908;-79
2023/11/09 04:58:50;;;;;;;;;;;3.40;99.90;;;;;;5076098;28;20416;-78
2023/11/09 05:06:48;;;;;;;;;;;3.40;99.90;;;;;;5086586;28;20185;-79
2023/11/09 05:09:24;;;;;;;;;;;3.50;99.90;;;;;;5067224;28;19926;-78
2023/11/09 05:11:50;;;;;;;;;;;3.50;99.90;;;;;;5066984;28;19962;-78
2023/11/09 05:14:16;;;;;;;;;;;3.50;99.90;;;;;;5067225;28;19905;-79
2023/11/09 05:16:42;;;;;;;;;;;3.50;99.90;;;;;;5071586;28;20341;-79
2023/11/09 05:19:08;;;;;;;;;;;3.40;99.90;;;;;;5063219;28;19973;-79
2023/11/09 05:21:35;;;;;;;;;;;3.40;99.90;;;;;;5063242;28;20364;-79
2023/11/09 05:24:01;;;;;;;;;;;3.50;99.90;;;;;;5064900;28;19960;-79
2023/11/09 05:26:32;;;;;;;;;;;3.50;99.90;;;;;;5072907;28;19916;-79
2023/11/09 05:28:58;;;;;;;;;;;4.00;99.90;;;;;;5070886;28;19943;-79
2023/11/09 05:31:24;;;;;;;;;;;3.90;99.90;;;;;;5052514;28;20419;-80
2023/11/09 05:33:52;;;;;;;;;;;3.50;99.90;;;;;;5086145;28;19905;-79
2023/11/09 05:36:18;;;;;;;;;;;3.50;99.90;;;;;;5068705;28;19909;-79
2023/11/09 05:38:44;;;;;;;;;;;3.40;99.90;;;;;;5081321;28;20054;-79
2023/11/09 05:41:11;;;;;;;;;;;3.50;99.90;;;;;;5069380;28;19915;-79
2023/11/09 05:43:38;;;;;;;;;;;3.50;99.90;;;;;;5087788;28;19944;-79
2023/11/09 05:46:05;;;;;;;;;;;3.50;99.90;;;;;;5088332;28;20417;-79
2023/11/09 05:48:32;;;;;;;;;;;3.70;99.90;;;;;;5069563;28;19911;-79
2023/11/09 05:50:58;;;;;;;;;;;3.50;99.90;;;;;;5070770;28;19923;-79
2023/11/09 05:53:26;;;;;;;;;;;3.60;99.90;;;;;;5070563;28;19904;-79
2023/11/09 05:55:53;;;;;;;;;;;4.30;99.90;;;;;;5070578;28;19958;-79
2023/11/09 05:58:19;;;;;;;;;;;3.50;99.90;;;;;;5069915;28;19904;-78
2023/11/09 06:00:46;;;;;;;;;;;3.60;99.90;;;;;;5062496;28;20346;-78
2023/11/09 06:03:12;;;;;;;;;;;4.50;99.90;;;;;;5065815;28;19909;-79
2023/11/09 06:05:41;;;;;;;;;;;3.60;99.90;;;;;;5049373;28;19921;-79
2023/11/09 06:08:11;;;;;;;;;;;3.60;99.90;;;;;;5066815;28;19927;-79
2023/11/09 06:10:39;;;;;;;;;;;3.60;99.90;;;;;;5066582;28;19915;-79
2023/11/09 06:13:06;;;;;;;;;;;3.70;99.90;;;;;;5048885;28;20510;-79
2023/11/09 06:15:34;;;;;;;;;;;4.30;99.90;;;;;;5066404;28;19904;-79
2023/11/09 06:18:03;;;;;;;;;;;3.90;99.90;;;;;;5064159;28;19967;-78
2023/11/09 06:20:30;;;;;;;;;;;4.10;99.90;;;;;;5066880;28;19911;-78
2023/11/09 06:22:56;;;;;;;;;;;4.90;99.90;;;;;;5049872;28;19931;-80
2023/11/09 06:25:23;;;;;;;;;;;4.20;99.90;;;;;;5067195;28;19967;-79
2023/11/09 06:27:51;;;;;;;;;;;4.80;99.90;;;;;;5051741;28;19905;-79
2023/11/09 06:30:27;;;;;;;;;;;4.70;99.90;;;;;;5069045;28;19905;-79
2023/11/09 06:32:55;;;;;;;;;;;5.40;99.90;;;;;;5068126;28;19908;-78
2023/11/09 06:35:21;;;;;;;;;;;5.30;99.90;;;;;;5033607;28;20308;-79
2023/11/09 06:37:50;;;;;;;;;;;5.30;99.90;;;;;;5031850;28;19992;-78
2023/11/09 06:40:16;;;;;;;;;;;5.80;99.90;;;;;;5050406;28;19912;-79
2023/11/09 06:42:49;;;;;;;;;;;6.90;99.90;;;;;;5068538;28;19911;-79
2023/11/09 06:45:27;;;;;;;;;;;6.00;99.90;;;;;;5086007;28;19920;-78
2023/11/09 06:47:52;;;;;;;;;;;6.40;99.90;;;;;;5068983;28;19904;-80
2023/11/09 06:50:27;;;;;;;;;;;6.70;99.90;;;;;;5086077;28;19913;-79
2023/11/09 06:52:56;;;;;;;;;;;6.60;99.90;;;;;;5061375;28;20426;-78
2023/11/09 06:55:21;;;;;;;;;;;6.10;99.90;;;;;;5068905;28;19905;-79
2023/11/09 06:57:50;;;;;;;;;;;6.80;99.90;;;;;;5084171;28;19904;-78
2023/11/09 07:00:17;;;;;;;;;;;6.50;99.90;;;;;;5076009;28;19909;-77
2023/11/09 07:02:43;;;;;;;;;;;7.00;99.90;;;;;;5069723;28;19908;-80
2023/11/09 07:05:13;;;;;;;;;;;7.10;99.90;;;;;;5068706;28;19942;-79
2023/11/09 07:07:42;;;;;;;;;;;7.20;99.90;;;;;;5067698;28;19912;-79
2023/11/09 07:10:08;;;;;;;;;;;7.80;99.90;;;;;;5084904;28;19912;-78
2023/11/09 07:12:34;;;;;;;;;;;8.30;99.90;;;;;;5066938;28;19919;-78
2023/11/09 07:15:00;;;;;;;;;;;8.50;99.90;;;;;;5082896;28;19910;-79
2023/11/09 07:17:26;;;;;;;;;;;8.80;99.90;;;;;;5065242;28;19904;-78
2023/11/09 07:19:53;;;;;;;;;;;9.30;99.90;;;;;;5065457;28;19911;-77
2023/11/09 07:22:22;;;;;;;;;;;9.70;99.90;;;;;;5065658;28;19919;-78
2023/11/09 07:24:52;;;;;;;;;;;9.90;99.90;;;;;;5085267;28;19909;-78
2023/11/09 07:27:18;;;;;;;;;;;9.90;99.90;;;;;;5067462;28;20292;-79
2023/11/09 07:29:44;;;;;;;;;;;9.70;99.90;;;;;;5083013;28;19915;-79
2023/11/09 07:32:11;;;;;;;;;;;9.50;99.90;;;;;;5066209;28;20384;-79
2023/11/09 07:34:44;;;;;;;;;;;10.00;99.90;;;;;;5084441;28;19908;-78
2023/11/09 07:37:13;;;;;;;;;;;9.90;99.90;;;;;;5065892;28;19900;-79
2023/11/09 07:39:40;;;;;;;;;;;10.60;99.90;;;;;;5066560;28;19905;-78
2023/11/09 07:42:08;;;;;;;;;;;10.90;99.90;;;;;;5067548;28;20442;-78
2023/11/09 07:44:34;;;;;;;;;;;11.30;99.90;;;;;;5067575;28;19922;-78
2023/11/09 07:47:01;;;;;;;;;;;11.60;99.90;;;;;;5067063;28;19956;-79
2023/11/09 07:49:31;;;;;;;;;;;11.90;99.90;;;;;;5066769;28;19904;-79
2023/11/09 07:52:14;;;;;;;;;;;12.00;99.90;;;;;;5083644;28;19963;-78
2023/11/09 07:54:40;;;;;;;;;;;12.00;99.90;;;;;;5085530;28;20363;-78
2023/11/09 07:57:06;;;;;;;;;;;12.00;99.90;;;;;;5067166;28;19904;-79
2023/11/09 07:59:32;;;;;;;;;;;11.90;99.90;;;;;;5084407;28;19971;-79
2023/11/09 08:01:58;;;;;;;;;;;11.50;99.90;;;;;;5066660;28;20342;-79
2023/11/09 08:04:28;;;;;;;;;;;11.90;99.90;;;;;;5049997;28;19908;-78
2023/11/09 08:06:54;;;;;;;;;;;11.80;99.90;;;;;;5063116;28;19912;-79
2023/11/09 08:09:21;;;;;;;;;;;11.90;99.90;;;;;;5065397;28;19908;-77
2023/11/09 08:11:48;;;;;;;;;;;12.10;99.90;;;;;;5066185;28;19904;-79
2023/11/09 08:14:16;;;;;;;;;;;12.60;99.90;;;;;;5083304;28;19917;-78
2023/11/09 08:16:42;;;;;;;;;;;12.80;99.90;;;;;;5082445;28;19912;-78
2023/11/09 08:19:08;;;;;;;;;;;13.40;99.90;;;;;;5064809;28;19909;-79
2023/11/09 08:21:34;;;;;;;;;;;13.80;99.90;;;;;;5082537;28;20284;-78
2023/11/09 08:24:01;;;;;;;;;;;14.20;99.90;;;;;;5063952;28;19968;-78
2023/11/09 08:26:27;;;;;;;;;;;14.30;99.90;;;;;;5063726;28;20388;-78
2023/11/09 08:28:53;;;;;;;;;;;14.60;99.90;;;;;;5064273;28;19905;-78
2023/11/09 08:31:18;;;;;;;;;;;14.80;99.90;;;;;;5063239;28;20008;-78
2023/11/09 08:33:45;;;;;;;;;;;14.60;97.40;;;;;;5064854;28;20387;-79
2023/11/09 08:36:11;;;;;;;;;;;14.30;99.20;;;;;;5063355;28;19935;-80
2023/11/09 08:38:39;;;;;;;;;;;13.80;98.30;;;;;;5082947;28;19915;-79
2023/11/09 08:41:06;;;;;;;;;;;13.30;99.90;;;;;;5082706;28;19979;-79
2023/11/09 08:43:33;;;;;;;;;;;12.70;99.90;;;;;;5064903;28;20372;-80
2023/11/09 08:46:03;;;;;;;;;;;12.40;99.90;;;;;;5064765;28;19924;-79
2023/11/09 08:48:30;;;;;;;;;;;12.20;99.90;;;;;;5083054;28;19916;-78
2023/11/09 08:51:00;;;;;;;;;;;11.70;99.90;;;;;;5065054;28;19916;-79
2023/11/09 08:53:31;;;;;;;;;;;12.00;99.90;;;;;;5082751;28;19915;-79
2023/11/09 08:55:57;;;;;;;;;;;11.80;99.90;;;;;;5063993;28;19912;-80
2023/11/09 08:58:36;;;;;;;;;;;11.60;99.90;;;;;;5065313;28;20030;-80
2023/11/09 09:01:04;;;;;;;;;;;11.50;99.90;;;;;;5073078;28;19980;-79
2023/11/09 09:03:36;;;;;;;;;;;11.60;99.90;;;;;;5091916;28;19926;-79
2023/11/09 09:06:04;;;;;;;;;;;11.50;99.90;;;;;;5068046;28;19975;-79
2023/11/09 09:08:34;;;;;;;;;;;11.30;99.90;;;;;;5051829;28;19916;-79
2023/11/09 09:10:59;;;;;;;;;;;11.40;99.90;;;;;;5066730;28;19905;-78
2023/11/09 09:13:31;;;;;;;;;;;11.30;99.90;;;;;;5065037;28;19908;-78
2023/11/09 09:15:57;;;;;;;;;;;11.30;99.90;;;;;;5067139;28;20383;-79
2023/11/09 09:18:23;;;;;;;;;;;11.20;99.90;;;;;;5067016;28;19904;-80
2023/11/09 09:20:51;;;;;;;;;;;11.20;99.90;;;;;;5085389;28;19904;-79
2023/11/09 09:23:22;;;;;;;;;;;11.20;99.90;;;;;;5086068;28;20015;-79
2023/11/09 09:25:48;;;;;;;;;;;11.30;99.90;;;;;;5085819;28;19912;-79
2023/11/09 09:28:19;;;;;;;;;;;11.20;99.90;;;;;;5085175;28;19908;-79
2023/11/09 09:30:48;;;;;;;;;;;11.10;99.90;;;;;;5067114;28;19912;-79
2023/11/09 09:33:16;;;;;;;;;;;11.10;99.90;;;;;;5085176;28;20384;-79
2023/11/09 09:35:42;;;;;;;;;;;11.10;99.90;;;;;;5059397;28;19972;-80
2023/11/09 09:38:08;;;;;;;;;;;11.00;99.90;;;;;;5068107;28;19908;-79
2023/11/09 09:40:36;;;;;;;;;;;11.00;99.90;;;;;;5067903;28;19952;-80
2023/11/09 09:43:03;;;;;;;;;;;11.00;99.90;;;;;;5085536;28;19912;-79
2023/11/09 09:45:30;;;;;;;;;;;10.90;99.90;;;;;;5067180;28;19923;-80
2023/11/09 09:48:01;;;;;;;;;;;10.90;99.90;;;;;;5067779;28;19904;-81
2023/11/09 09:50:34;;;;;;;;;;;10.90;99.90;;;;;;5086853;28;19904;-79
2023/11/09 09:53:03;;;;;;;;;;;10.80;99.90;;;;;;5085917;28;19917;-80
2023/11/09 09:55:35;;;;;;;;;;;10.80;99.90;;;;;;5085656;28;19951;-80
2023/11/09 09:58:01;;;;;;;;;;;10.90;99.90;;;;;;5067175;28;19958;-79
2023/11/09 10:00:33;;;;;;;;;;;10.90;99.90;;;;;;5085632;28;20369;-79
2023/11/09 10:03:02;;;;;;;;;;;10.90;99.90;;;;;;5051034;28;19908;-79
2023/11/09 10:05:33;;;;;;;;;;;11.00;99.90;;;;;;5065140;28;20304;-79
2023/11/09 10:08:01;;;;;;;;;;;10.90;99.90;;;;;;5075460;28;19911;-79
2023/11/09 10:10:27;;;;;;;;;;;11.00;99.90;;;;;;5057526;28;19908;-78
2023/11/09 10:12:55;;;;;;;;;;;11.10;99.90;;;;;;5059775;28;19915;-78
2023/11/09 10:15:24;;;;;;;;;;;11.00;99.90;;;;;;5059302;28;19913;-79
2023/11/09 10:17:54;;;;;;;;;;;10.90;99.90;;;;;;5084937;28;19992;-79
2023/11/09 10:20:20;;;;;;;;;;;10.90;99.90;;;;;;5047334;28;19920;-78
2023/11/09 10:22:47;;;;;;;;;;;10.90;99.90;;;;;;5067664;28;19994;-79
2023/11/09 10:25:14;;;;;;;;;;;11.00;99.90;;;;;;5065529;28;20450;-79
2023/11/09 10:27:47;;;;;;;;;;;11.00;99.90;;;;;;5065258;28;19908;-79
2023/11/09 10:30:18;;;;;;;;;;;11.10;99.90;;;;;;5063984;28;20361;-79
2023/11/09 10:32:46;;;;;;;;;;;11.10;99.90;;;;;;5047856;28;20337;-79
2023/11/09 10:35:17;;;;;;;;;;;10.70;99.90;;;;;;5047639;28;19971;-78
2023/11/09 10:37:43;;;;;;;;;;;11.10;99.90;;;;;;5064269;28;19988;-78
2023/11/09 10:40:13;;;;;;;;;;;11.10;99.90;;;;;;5082421;28;19911;-78
2023/11/09 10:42:44;;;;;;;;;;;11.20;99.90;;;;;;5051706;28;19984;-79
2023/11/09 10:45:11;;;;;;;;;;;11.50;99.90;;;;;;5066824;28;19923;-79
2023/11/09 10:47:40;;;;;;;;;;;11.20;99.90;;;;;;5067631;28;19909;-79
2023/11/09 10:50:18;;;;;;;;;;;11.20;99.90;;;;;;5065861;28;19991;-78
2023/11/09 10:52:43;;;;;;;;;;;11.20;99.90;;;;;;5046545;28;19908;-78
2023/11/09 10:55:11;;;;;;;;;;;11.30;99.90;;;;;;5064847;28;20003;-79
2023/11/09 10:57:42;;;;;;;;;;;11.10;99.90;;;;;;5066888;28;19908;-78
2023/11/09 11:00:25;;;;;;;;;;;11.10;99.90;;;;;;5084762;28;19896;-79
2023/11/09 11:03:02;;;;;;;;;;;11.20;99.90;;;;;;5068627;28;19915;-80
2023/11/09 11:05:29;;;;;;;;;;;11.50;99.90;;;;;;5077667;28;19980;-79
2023/11/09 11:08:03;;;;;;;;;;;11.40;99.90;;;;;;5084415;28;19912;-79
2023/11/09 11:10:30;;;;;;;;;;;11.40;99.90;;;;;;5069616;28;19959;-78
2023/11/09 11:13:03;;;;;;;;;;;11.40;99.90;;;;;;5084296;28;19908;-78
2023/11/09 11:15:42;;;;;;;;;;;11.30;99.90;;;;;;5050568;28;19967;-79
2023/11/09 11:18:07;;;;;;;;;;;11.40;99.90;;;;;;5048643;28;19915;-79
2023/11/09 11:20:53;;;;;;;;;;;11.50;99.90;;;;;;5047196;28;19995;-79
2023/11/09 11:23:54;;;;;;;;;;;11.50;99.90;;;;;;5062211;28;19940;-79
2023/11/09 11:26:21;;;;;;;;;;;11.60;99.90;;;;;;5044903;28;19920;-79
2023/11/09 11:28:47;;;;;;;;;;;11.90;99.90;;;;;;5041993;28;19909;-79
2023/11/09 11:31:15;;;;;;;;;;;11.90;99.90;;;;;;5043234;28;19912;-78
2023/11/09 11:33:41;;;;;;;;;;;11.90;99.90;;;;;;5042968;28;19905;-78
2023/11/09 11:36:24;;;;;;;;;;;11.80;99.90;;;;;;5042093;28;19966;-78
2023/11/09 11:39:07;;;;;;;;;;;12.00;99.90;;;;;;5042182;28;19913;-78
2023/11/09 11:41:36;;;;;;;;;;;11.90;99.90;;;;;;5062023;28;20327;-79
2023/11/09 11:44:02;;;;;;;;;;;11.80;99.90;;;;;;5061373;28;19967;-78
2023/11/09 11:46:28;;;;;;;;;;;12.10;99.90;;;;;;5059688;28;20372;-79
2023/11/09 11:48:54;;;;;;;;;;;12.00;99.90;;;;;;5058889;28;19905;-78
2023/11/09 11:51:20;;;;;;;;;;;12.20;99.90;;;;;;5061452;28;19905;-79
2023/11/09 11:53:52;;;;;;;;;;;12.20;99.90;;;;;;5044226;28;19909;-79
2023/11/09 11:56:24;;;;;;;;;;;12.20;99.90;;;;;;5060372;28;20440;-79
2023/11/09 11:58:55;;;;;;;;;;;12.20;99.90;;;;;;5044925;28;20027;-79
2023/11/09 12:01:28;;;;;;;;;;;12.20;99.90;;;;;;5062223;28;20385;-79
2023/11/09 12:03:58;;;;;;;;;;;12.30;99.90;;;;;;5060834;28;19905;-79
2023/11/09 12:06:27;;;;;;;;;;;12.30;99.90;;;;;;5043512;28;19913;-79
2023/11/09 12:08:55;;;;;;;;;;;12.50;99.90;;;;;;5063047;28;20004;-79
2023/11/09 12:11:23;;;;;;;;;;;12.50;99.80;;;;;;5059449;28;20300;-81
2023/11/09 12:14:00;;;;;;;;;;;12.50;97.70;;;;;;5062842;28;20380;-79
2023/11/09 12:16:30;;;;;;;;;;;12.50;95.70;;;;;;5061104;28;19912;-79
2023/11/09 12:19:00;;;;;;;;;;;12.40;96.60;;;;;;5060727;28;19905;-79
2023/11/09 12:21:29;;;;;;;;;;;12.40;96.00;;;;;;5026369;28;20312;-80
2023/11/09 12:23:56;;;;;;;;;;;12.40;94.60;;;;;;5044859;28;19905;-79
2023/11/09 12:26:30;;;;;;;;;;;12.30;95.80;;;;;;5046877;28;19965;-79
2023/11/09 12:28:55;;;;;;;;;;;12.50;95.90;;;;;;5047017;28;19962;-79
2023/11/09 12:31:24;;;;;;;;;;;12.50;93.70;;;;;;5064103;28;19950;-80
2023/11/09 12:34:01;;;;;;;;;;;12.50;93.60;;;;;;5061272;28;19905;-79
2023/11/09 12:36:30;;;;;;;;;;;12.50;94.80;;;;;;5067339;28;19905;-81
2023/11/09 12:38:56;;;;;;;;;;;12.70;94.00;;;;;;5065711;28;19920;-79
2023/11/09 12:41:31;;;;;;;;;;;12.50;93.80;;;;;;5068134;28;19905;-80
2023/11/09 12:43:58;;;;;;;;;;;12.60;94.50;;;;;;5051180;28;19959;-79
2023/11/09 12:46:28;;;;;;;;;;;12.90;95.00;;;;;;5067790;28;20385;-79
2023/11/09 12:48:59;;;;;;;;;;;12.80;94.60;;;;;;5051468;28;19905;-80
2023/11/09 12:51:28;;;;;;;;;;;12.80;93.60;;;;;;5069777;28;19909;-80
2023/11/09 12:53:57;;;;;;;;;;;13.20;93.50;;;;;;5050656;28;19915;-79
2023/11/09 12:56:28;;;;;;;;;;;12.90;94.40;;;;;;5049168;28;19904;-79
2023/11/09 12:59:00;;;;;;;;;;;13.10;91.70;;;;;;5078228;28;19904;-81
2023/11/09 13:01:29;;;;;;;;;;;13.00;90.70;;;;;;5072550;28;19979;-79
2023/11/09 13:03:56;;;;;;;;;;;12.90;91.40;;;;;;5069556;28;19912;-79
2023/11/09 13:06:23;;;;;;;;;;;12.80;91.10;;;;;;5084050;28;20015;-79
2023/11/09 13:08:49;;;;;;;;;;;12.70;91.90;;;;;;5087236;28;19927;-79
2023/11/09 13:11:39;;;;;;;;;;;12.50;93.70;;;;;;5088559;28;20027;-80
2023/11/09 13:14:11;;;;;;;;;;;12.60;95.40;;;;;;5086972;28;19944;-79
2023/11/09 13:16:52;;;;;;;;;;;12.70;93.60;;;;;;5086399;28;20549;-80
2023/11/09 13:19:29;;;;;;;;;;;12.70;92.10;;;;;;5078501;28;19976;-80
2023/11/09 13:22:24;;;;;;;;;;;12.70;94.70;;;;;;5071630;28;19905;-79
2023/11/09 13:25:00;;;;;;;;;;;12.50;93.90;;;;;;5085967;28;19911;-78
2023/11/09 13:27:28;;;;;;;;;;;12.80;94.60;;;;;;5086592;28;20698;-79
2023/11/09 13:29:56;;;;;;;;;;;12.70;93.30;;;;;;5069836;28;19913;-79
2023/11/09 13:32:26;;;;;;;;;;;12.60;94.40;;;;;;5080057;28;19912;-79
2023/11/09 13:37:38;;;;;;;;;;;12.60;94.90;;;;;;5082080;28;19914;-78
2023/11/09 13:42:45;;;;;;;;;;;12.40;95.60;;;;;;5066783;28;19944;-80
2023/11/09 13:48:23;;;;;;;;;;;12.20;95.80;;;;;;5026256;28;20015;-80
2023/11/09 13:50:49;;;;;;;;;;;12.30;96.20;;;;;;5036366;28;19955;-79
2023/11/09 13:58:47;;;;;;;;;;;12.30;99.00;;;;;;5068121;28;19959;-80
2023/11/09 14:01:25;;;;;;;;;;;12.30;99.90;;;;;;5068353;28;19905;-79
2023/11/09 14:03:51;;;;;;;;;;;12.20;99.60;;;;;;5067210;28;19988;-79
2023/11/09 14:06:20;;;;;;;;;;;12.50;99.90;;;;;;5053752;28;19939;-79
2023/11/09 14:08:46;;;;;;;;;;;12.30;98.90;;;;;;5049956;28;19921;-78
2023/11/09 14:11:22;;;;;;;;;;;11.90;99.30;;;;;;5072161;28;19908;-79
2023/11/09 14:14:03;;;;;;;;;;;12.10;99.80;;;;;;5054325;28;19912;-78
2023/11/09 14:16:33;;;;;;;;;;;12.20;99.90;;;;;;5075400;28;19969;-79
2023/11/09 14:19:35;;;;;;;;;;;12.20;99.90;;;;;;5086379;28;19911;-80
2023/11/09 14:21:55;;;;;;;;;;;12.50;99.90;;;;;;5084474;28;19899;-79
2023/11/09 14:24:23;;;;;;;;;;;11.80;99.90;;;;;;5069149;28;19911;-79
2023/11/09 14:26:49;;;;;;;;;;;11.80;99.90;;;;;;5057721;28;19916;-79
2023/11/09 14:29:20;;;;;;;;;;;11.70;99.90;;;;;;5089141;28;19908;-80
2023/11/09 14:31:46;;;;;;;;;;;11.70;99.90;;;;;;5058830;28;19911;-79
2023/11/09 14:34:13;;;;;;;;;;;11.60;99.90;;;;;;5063621;28;19904;-77
2023/11/09 14:36:47;;;;;;;;;;;11.60;99.90;;;;;;5069609;28;19911;-80
2023/11/09 14:39:23;;;;;;;;;;;11.70;99.90;;;;;;5065833;28;19905;-77
2023/11/09 14:41:49;;;;;;;;;;;11.60;99.90;;;;;;5046208;28;19909;-77
2023/11/09 14:44:20;;;;;;;;;;;11.40;99.90;;;;;;5046041;28;20064;-80
2023/11/09 14:46:46;;;;;;;;;;;11.30;99.90;;;;;;5070354;28;19920;-78
2023/11/09 14:49:13;;;;;;;;;;;11.30;99.90;;;;;;5064775;28;19939;-78
2023/11/09 14:51:41;;;;;;;;;;;11.20;99.90;;;;;;5084868;28;19908;-78
2023/11/09 14:54:09;;;;;;;;;;;11.20;99.90;;;;;;5083887;28;19908;-78